Time;durP1;ratioP1;P1;durP2;ratioP2;P2;SDS_P1;SDS_P2;PMS_P1;PMS_P2;Temp;Humidity;BMP_temperature;BMP_pressure;BME280_temperature;BME280_humidity;BME280_pressure;Samples;Min_cycle;Max_cycle;Signal;HPM_P1;HPM_P2
2021/08/18 00:00:23;;;;;;;5.35;3.50;;;15.70;93.50;;;;;;2037899;29;20063;-91
2021/08/18 00:01:24;;;;;;;4.28;3.15;;;15.70;93.50;;;;;;2031396;29;20115;-91
2021/08/18 00:02:25;;;;;;;4.40;3.40;;;15.70;93.50;;;;;;2049092;29;20020;-91
2021/08/18 00:03:28;;;;;;;4.95;3.25;;;15.70;93.50;;;;;;2049601;29;20044;-91
2021/08/18 00:04:28;;;;;;;4.55;3.28;;;15.70;93.50;;;;;;2053491;28;20070;-91
2021/08/18 00:05:29;;;;;;;4.72;3.17;;;15.70;93.50;;;;;;2053308;28;20043;-92
2021/08/18 00:06:30;;;;;;;4.22;3.15;;;15.70;93.50;;;;;;2048578;28;20039;-91
2021/08/18 00:07:30;;;;;;;4.80;3.30;;;15.70;93.50;;;;;;2055530;29;20039;-91
2021/08/18 00:08:31;;;;;;;5.20;3.40;;;15.70;93.50;;;;;;2036415;29;20023;-90
2021/08/18 00:09:32;;;;;;;5.05;3.30;;;15.70;93.50;;;;;;2028521;29;20083;-90
2021/08/18 00:10:33;;;;;;;4.45;3.40;;;15.70;93.50;;;;;;2043918;29;20515;-89
2021/08/18 00:11:34;;;;;;;4.47;3.38;;;15.70;93.50;;;;;;2051224;29;20020;-90
2021/08/18 00:12:35;;;;;;;6.10;3.47;;;15.70;93.50;;;;;;2051247;29;20055;-89
2021/08/18 00:13:36;;;;;;;6.13;3.30;;;15.70;93.50;;;;;;2060756;28;20019;-90
2021/08/18 00:14:37;;;;;;;5.43;3.50;;;15.70;93.50;;;;;;2059810;29;20037;-89
2021/08/18 00:15:40;;;;;;;4.93;3.15;;;15.70;93.50;;;;;;2056132;28;20054;-89
2021/08/18 00:16:40;;;;;;;4.93;3.50;;;15.70;93.50;;;;;;2050729;29;20044;-90
2021/08/18 00:17:42;;;;;;;4.70;3.30;;;15.70;93.50;;;;;;2049966;29;20036;-90
2021/08/18 00:18:43;;;;;;;4.65;3.17;;;15.70;93.60;;;;;;2058107;29;20039;-90
2021/08/18 00:19:44;;;;;;;5.53;3.33;;;15.70;93.50;;;;;;2052962;28;20087;-90
2021/08/18 00:20:44;;;;;;;4.90;3.40;;;15.70;93.60;;;;;;2037030;29;20034;-91
2021/08/18 00:21:45;;;;;;;4.93;3.53;;;15.70;93.60;;;;;;2037508;29;20499;-92
2021/08/18 00:22:46;;;;;;;5.75;3.50;;;15.70;93.60;;;;;;2034205;29;20056;-91
2021/08/18 00:23:47;;;;;;;4.80;3.38;;;15.70;93.50;;;;;;2044880;29;20041;-91
2021/08/18 00:24:48;;;;;;;4.40;3.35;;;15.70;93.50;;;;;;2050811;28;20039;-92
2021/08/18 00:25:49;;;;;;;5.22;3.63;;;15.70;93.50;;;;;;2043083;29;20044;-92
2021/08/18 00:26:49;;;;;;;5.40;3.25;;;15.70;93.50;;;;;;2036963;29;20040;-90
2021/08/18 00:27:50;;;;;;;5.38;3.78;;;15.70;93.50;;;;;;2052001;29;20035;-92
2021/08/18 00:28:51;;;;;;;4.57;3.30;;;15.70;93.50;;;;;;2028289;29;20538;-91
2021/08/18 00:29:51;;;;;;;4.10;3.15;;;15.70;93.50;;;;;;2028549;29;20041;-92
2021/08/18 00:30:53;;;;;;;5.80;3.60;;;15.70;93.50;;;;;;2048900;29;20071;-92
2021/08/18 00:31:54;;;;;;;5.50;3.60;;;15.70;93.50;;;;;;2047940;29;20036;-92
2021/08/18 00:32:55;;;;;;;5.05;3.30;;;15.70;93.50;;;;;;2055002;28;20039;-92
2021/08/18 00:33:56;;;;;;;7.40;4.03;;;15.70;93.50;;;;;;2052895;29;20453;-91
2021/08/18 00:34:56;;;;;;;4.38;3.53;;;15.70;93.50;;;;;;2045893;29;20044;-92
2021/08/18 00:35:57;;;;;;;5.40;3.60;;;15.70;93.50;;;;;;2043017;29;20036;-92
2021/08/18 00:36:58;;;;;;;5.75;3.90;;;15.70;93.50;;;;;;2042310;28;20080;-92
2021/08/18 00:37:59;;;;;;;5.75;3.72;;;15.70;93.50;;;;;;2034485;29;20064;-91
2021/08/18 00:39:00;;;;;;;5.97;3.80;;;15.70;93.50;;;;;;2035773;29;20076;-91
2021/08/18 00:40:00;;;;;;;5.90;3.80;;;15.70;93.60;;;;;;2050453;29;20505;-91
2021/08/18 00:41:01;;;;;;;5.50;3.72;;;15.70;93.60;;;;;;2050496;29;20176;-91
2021/08/18 00:42:02;;;;;;;4.55;3.13;;;15.70;93.50;;;;;;2034811;29;20071;-91
2021/08/18 00:43:02;;;;;;;5.63;3.58;;;15.70;93.60;;;;;;2034098;29;20047;-92
2021/08/18 00:44:05;;;;;;;5.47;3.88;;;15.70;93.60;;;;;;2058531;28;20563;-92
2021/08/18 00:45:06;;;;;;;5.10;3.50;;;15.70;93.60;;;;;;2042526;29;20036;-91
2021/08/18 00:46:08;;;;;;;5.07;3.85;;;15.70;93.60;;;;;;2047907;28;20054;-92
2021/08/18 00:47:08;;;;;;;5.80;3.50;;;15.70;93.60;;;;;;2058127;28;20039;-91
2021/08/18 00:48:09;;;;;;;5.80;3.70;;;15.70;93.60;;;;;;2058908;28;20094;-91
2021/08/18 00:49:10;;;;;;;5.50;3.55;;;15.70;93.60;;;;;;2058440;28;20035;-91
2021/08/18 00:50:12;;;;;;;4.60;3.30;;;15.70;93.60;;;;;;2058589;28;20133;-92
2021/08/18 00:51:13;;;;;;;5.05;3.25;;;15.70;93.60;;;;;;2041306;29;20079;-91
2021/08/18 00:52:14;;;;;;;4.88;3.33;;;15.70;93.60;;;;;;2034265;29;20037;-91
2021/08/18 00:53:14;;;;;;;6.03;3.70;;;15.70;93.50;;;;;;2034267;29;20074;-92
2021/08/18 00:54:16;;;;;;;5.43;3.50;;;15.70;93.50;;;;;;2034035;29;20127;-92
2021/08/18 00:55:22;;;;;;;6.15;3.75;;;15.70;93.60;;;;;;2057692;28;20137;-91
2021/08/18 00:56:23;;;;;;;5.50;3.55;;;15.70;93.60;;;;;;2051503;28;20063;-92
2021/08/18 00:57:24;;;;;;;4.97;3.70;;;15.70;93.60;;;;;;2042702;29;20079;-92
2021/08/18 00:58:27;;;;;;;5.75;3.38;;;15.70;93.60;;;;;;2054798;29;20112;-91
2021/08/18 00:59:29;;;;;;;5.25;3.40;;;15.70;93.60;;;;;;2059717;28;20034;-91
2021/08/18 01:00:30;;;;;;;5.15;3.55;;;15.70;93.60;;;;;;2060299;28;20035;-91
2021/08/18 01:01:31;;;;;;;5.38;3.67;;;15.70;93.60;;;;;;2058299;29;20043;-91
2021/08/18 01:02:36;;;;;;;4.68;3.20;;;15.70;93.60;;;;;;2058645;28;20015;-90
2021/08/18 01:03:36;;;;;;;6.07;3.38;;;15.70;93.60;;;;;;2060782;28;20015;-92
2021/08/18 01:04:38;;;;;;;4.75;3.35;;;15.70;93.60;;;;;;2067410;28;20066;-92
2021/08/18 01:05:38;;;;;;;4.80;3.33;;;15.70;93.60;;;;;;2067684;28;20034;-90
2021/08/18 01:06:44;;;;;;;5.28;3.20;;;15.70;93.60;;;;;;2051879;28;20023;-89
2021/08/18 01:07:47;;;;;;;5.10;3.03;;;15.70;93.60;;;;;;2055972;28;20047;-92
2021/08/18 01:08:47;;;;;;;5.00;3.33;;;15.70;93.60;;;;;;2058526;28;20122;-92
2021/08/18 01:09:48;;;;;;;5.25;3.20;;;15.70;93.60;;;;;;2035175;29;20644;-92
2021/08/18 01:10:49;;;;;;;4.70;3.03;;;15.70;93.60;;;;;;2035232;29;20517;-92
2021/08/18 01:11:51;;;;;;;6.03;3.22;;;15.70;93.60;;;;;;2042692;29;20067;-92
2021/08/18 01:12:53;;;;;;;6.43;3.53;;;15.70;93.60;;;;;;2050209;28;20047;-92
2021/08/18 01:13:54;;;;;;;5.72;3.10;;;15.70;93.60;;;;;;2051158;28;20083;-92
2021/08/18 01:14:55;;;;;;;4.32;3.10;;;15.70;93.60;;;;;;2050930;29;20039;-92
2021/08/18 01:15:56;;;;;;;8.32;3.28;;;15.70;93.60;;;;;;2034971;29;20047;-92
2021/08/18 01:16:57;;;;;;;5.28;3.28;;;15.70;93.60;;;;;;2040599;28;20036;-93
2021/08/18 01:18:00;;;;;;;5.05;3.00;;;15.70;93.60;;;;;;2043460;29;20068;-93
2021/08/18 01:19:01;;;;;;;6.50;3.38;;;15.70;93.60;;;;;;2035843;29;20047;-92
2021/08/18 01:20:02;;;;;;;5.40;3.05;;;15.70;93.60;;;;;;2050382;29;20126;-92
2021/08/18 01:21:03;;;;;;;4.28;2.80;;;15.70;93.60;;;;;;2042253;29;20040;-93
2021/08/18 01:22:05;;;;;;;4.93;3.20;;;15.70;93.60;;;;;;2040796;29;20483;-93
2021/08/18 01:23:11;;;;;;;4.30;2.90;;;15.70;93.60;;;;;;2049868;28;20043;-93
2021/08/18 01:24:13;;;;;;;4.47;2.72;;;15.70;93.60;;;;;;2058000;28;20503;-93
2021/08/18 01:25:15;;;;;;;5.32;2.97;;;15.70;93.60;;;;;;2050188;29;20572;-92
2021/08/18 01:26:15;;;;;;;3.95;2.63;;;15.70;93.60;;;;;;2042672;28;20036;-92
2021/08/18 01:27:17;;;;;;;5.28;2.95;;;15.70;93.60;;;;;;2042222;29;20036;-92
2021/08/18 01:28:18;;;;;;;5.35;3.30;;;15.70;93.60;;;;;;2050190;29;20071;-93
2021/08/18 01:29:18;;;;;;;4.50;3.03;;;15.70;93.60;;;;;;2034403;29;20052;-93
2021/08/18 01:30:21;;;;;;;5.28;3.10;;;15.70;93.80;;;;;;2042407;29;20050;-92
2021/08/18 01:31:22;;;;;;;4.10;2.67;;;15.70;93.60;;;;;;2034711;29;20059;-92
2021/08/18 01:32:23;;;;;;;4.72;2.97;;;15.70;93.60;;;;;;2042604;29;20090;-93
2021/08/18 01:33:24;;;;;;;4.68;2.97;;;15.70;93.60;;;;;;2052253;29;20062;-92
2021/08/18 01:34:25;;;;;;;4.57;2.92;;;15.70;93.60;;;;;;2051269;29;20059;-93
2021/08/18 01:35:31;;;;;;;3.50;2.60;;;15.70;93.60;;;;;;2043662;29;20108;-91
2021/08/18 01:36:33;;;;;;;4.72;3.00;;;15.70;93.60;;;;;;2055608;28;20043;-92
2021/08/18 01:37:34;;;;;;;4.40;3.10;;;15.70;93.60;;;;;;2054864;28;20106;-93
2021/08/18 01:38:35;;;;;;;4.55;2.85;;;15.70;93.60;;;;;;2048324;28;20095;-93
2021/08/18 01:39:36;;;;;;;4.22;3.00;;;15.70;93.60;;;;;;2056204;28;20553;-93
2021/08/18 01:40:38;;;;;;;4.75;3.10;;;15.70;93.60;;;;;;2049205;28;20047;-93
2021/08/18 01:41:38;;;;;;;5.30;3.25;;;15.70;93.60;;;;;;2065746;28;20121;-93
2021/08/18 01:42:39;;;;;;;4.60;2.80;;;15.70;93.60;;;;;;2060781;28;20509;-93
2021/08/18 01:43:40;;;;;;;4.50;2.83;;;15.70;93.60;;;;;;2059081;28;20117;-93
2021/08/18 01:44:41;;;;;;;4.78;2.92;;;15.70;93.60;;;;;;2049983;28;20043;-93
2021/08/18 01:45:43;;;;;;;5.25;3.15;;;15.70;93.60;;;;;;2050105;28;20035;-93
2021/08/18 01:46:44;;;;;;;4.15;2.70;;;15.70;93.60;;;;;;2045578;28;20494;-93
2021/08/18 01:47:45;;;;;;;6.03;3.20;;;15.70;93.60;;;;;;2050005;29;20058;-93
2021/08/18 01:48:45;;;;;;;6.07;3.22;;;15.70;93.60;;;;;;2047962;29;20071;-93
2021/08/18 01:49:46;;;;;;;4.40;3.20;;;15.70;93.60;;;;;;2049928;29;20142;-93
2021/08/18 01:50:50;;;;;;;4.60;3.20;;;15.70;93.60;;;;;;2034394;29;20143;-94
2021/08/18 01:51:51;;;;;;;5.97;3.40;;;15.70;93.60;;;;;;2058329;28;20035;-93
2021/08/18 01:52:53;;;;;;;4.53;3.00;;;15.70;93.60;;;;;;2057556;28;20031;-93
2021/08/18 01:53:54;;;;;;;6.75;3.42;;;15.70;93.60;;;;;;2042432;28;20046;-93
2021/08/18 01:54:55;;;;;;;5.68;3.42;;;15.70;93.60;;;;;;2046106;29;20040;-93
2021/08/18 01:56:01;;;;;;;5.15;3.50;;;15.70;93.60;;;;;;2036618;29;20043;-93
2021/08/18 01:57:02;;;;;;;5.25;3.40;;;15.70;93.60;;;;;;2035434;29;20040;-93
2021/08/18 01:58:03;;;;;;;4.45;3.22;;;15.70;93.60;;;;;;2041185;29;20058;-92
2021/08/18 01:59:03;;;;;;;4.32;3.10;;;15.70;93.60;;;;;;2042016;28;20383;-92
2021/08/18 02:00:06;;;;;;;4.68;3.25;;;15.70;93.60;;;;;;2041664;29;20044;-93
2021/08/18 02:01:10;;;;;;;5.30;3.72;;;15.70;93.60;;;;;;2042389;28;20032;-92
2021/08/18 02:02:11;;;;;;;4.82;3.22;;;15.70;93.60;;;;;;2050264;28;20100;-93
2021/08/18 02:03:12;;;;;;;5.30;3.40;;;15.70;93.60;;;;;;2042016;29;20417;-92
2021/08/18 02:04:12;;;;;;;5.10;3.28;;;15.70;93.90;;;;;;2041832;29;20171;-92
2021/08/18 02:05:13;;;;;;;6.28;3.40;;;15.70;93.60;;;;;;2034082;29;20098;-93
2021/08/18 02:06:14;;;;;;;5.03;3.28;;;15.70;93.60;;;;;;2034200;29;20471;-92
2021/08/18 02:07:15;;;;;;;4.78;3.30;;;15.70;93.60;;;;;;2056955;28;20058;-92
2021/08/18 02:08:15;;;;;;;5.07;3.28;;;15.70;93.60;;;;;;2049911;29;20424;-92
2021/08/18 02:09:16;;;;;;;5.75;3.38;;;15.70;93.60;;;;;;2057872;28;20129;-92
2021/08/18 02:10:18;;;;;;;5.53;3.58;;;15.70;93.60;;;;;;2050082;28;20046;-92
2021/08/18 02:11:18;;;;;;;5.35;3.38;;;15.70;93.60;;;;;;2042372;28;20032;-92
2021/08/18 02:12:19;;;;;;;4.80;3.28;;;15.70;93.60;;;;;;2041972;29;20039;-92
2021/08/18 02:13:21;;;;;;;4.43;3.15;;;15.70;93.60;;;;;;2041844;29;20111;-92
2021/08/18 02:14:22;;;;;;;5.68;3.78;;;15.70;93.60;;;;;;2054429;28;20030;-92
2021/08/18 02:15:25;;;;;;;7.35;3.25;;;15.70;93.60;;;;;;2056379;28;20130;-93
2021/08/18 02:16:26;;;;;;;5.03;3.10;;;15.70;93.60;;;;;;2049501;28;20569;-93
2021/08/18 02:17:27;;;;;;;4.78;3.15;;;15.70;93.60;;;;;;2041756;29;20039;-92
2021/08/18 02:18:28;;;;;;;5.18;3.20;;;15.70;93.60;;;;;;2041882;29;20492;-93
2021/08/18 02:19:28;;;;;;;4.95;3.05;;;15.70;93.60;;;;;;2049245;28;20123;-92
2021/08/18 02:20:31;;;;;;;4.45;3.40;;;15.70;93.60;;;;;;2049679;29;20506;-92
2021/08/18 02:21:32;;;;;;;5.82;3.03;;;15.70;93.60;;;;;;2042180;28;20035;-92
2021/08/18 02:22:33;;;;;;;4.43;2.90;;;15.70;93.60;;;;;;2049555;28;20039;-93
2021/08/18 02:23:33;;;;;;;5.47;2.97;;;15.70;93.60;;;;;;2044032;29;20040;-92
2021/08/18 02:24:34;;;;;;;4.13;2.90;;;15.70;93.60;;;;;;2041492;29;20070;-93
2021/08/18 02:25:36;;;;;;;4.85;3.20;;;15.70;93.60;;;;;;2033993;29;20582;-92
2021/08/18 02:26:36;;;;;;;4.20;3.10;;;15.70;93.60;;;;;;2049732;28;20039;-92
2021/08/18 02:27:38;;;;;;;5.90;3.10;;;15.70;93.60;;;;;;2057544;28;20042;-92
2021/08/18 02:28:38;;;;;;;4.18;2.88;;;15.70;93.60;;;;;;2056758;28;20034;-92
2021/08/18 02:29:39;;;;;;;5.20;3.17;;;15.70;93.60;;;;;;2041756;29;20086;-91
2021/08/18 02:30:41;;;;;;;4.72;3.13;;;15.70;93.60;;;;;;2041849;29;20032;-92
2021/08/18 02:31:41;;;;;;;4.18;2.83;;;15.70;93.60;;;;;;2041576;29;20043;-93
2021/08/18 02:32:42;;;;;;;5.63;3.00;;;15.70;93.60;;;;;;2049722;29;20122;-93
2021/08/18 02:33:43;;;;;;;4.60;2.97;;;15.70;93.90;;;;;;2041484;29;20039;-92
2021/08/18 02:34:43;;;;;;;3.63;2.75;;;15.70;93.60;;;;;;2049356;29;20398;-92
2021/08/18 02:35:44;;;;;;;4.90;3.30;;;15.70;93.60;;;;;;2041039;29;20498;-93
2021/08/18 02:36:45;;;;;;;4.82;3.08;;;15.70;93.60;;;;;;2048780;29;20118;-93
2021/08/18 02:37:47;;;;;;;4.53;2.75;;;15.60;93.50;;;;;;2041408;29;20048;-92
2021/08/18 02:38:48;;;;;;;5.72;2.83;;;15.70;93.60;;;;;;2045318;28;20031;-93
2021/08/18 02:39:48;;;;;;;5.38;2.92;;;15.70;93.60;;;;;;2033946;29;20515;-93
2021/08/18 02:40:49;;;;;;;5.28;3.00;;;15.70;93.60;;;;;;2041200;29;20581;-93
2021/08/18 02:41:50;;;;;;;6.00;3.22;;;15.60;93.80;;;;;;2041515;29;20486;-92
2021/08/18 02:42:55;;;;;;;4.22;2.70;;;15.60;93.50;;;;;;2033508;29;20403;-93
2021/08/18 02:43:56;;;;;;;4.38;2.92;;;15.60;93.50;;;;;;2035281;28;20048;-93
2021/08/18 02:44:56;;;;;;;4.50;2.72;;;15.60;93.60;;;;;;2061772;28;20088;-93
2021/08/18 02:45:57;;;;;;;4.00;2.83;;;15.60;93.60;;;;;;2057831;28;20500;-93
2021/08/18 02:46:58;;;;;;;4.88;2.90;;;15.60;93.60;;;;;;2050820;28;20453;-92
2021/08/18 02:47:59;;;;;;;4.75;2.70;;;15.60;93.60;;;;;;2057662;28;20374;-93
2021/08/18 02:48:59;;;;;;;4.28;2.92;;;15.60;93.60;;;;;;2057141;28;20428;-93
2021/08/18 02:50:01;;;;;;;4.80;2.90;;;15.60;93.60;;;;;;2062450;28;20555;-92
2021/08/18 02:51:02;;;;;;;3.55;2.50;;;15.60;93.60;;;;;;2057464;28;20134;-92
2021/08/18 02:52:02;;;;;;;4.00;2.50;;;15.60;93.60;;;;;;2049161;29;20036;-93
2021/08/18 02:53:03;;;;;;;3.85;2.55;;;15.60;93.60;;;;;;2040763;29;20060;-93
2021/08/18 02:54:04;;;;;;;3.22;2.35;;;15.60;93.60;;;;;;2032768;29;20565;-94
2021/08/18 02:55:05;;;;;;;6.28;2.80;;;15.60;93.60;;;;;;2030872;29;20040;-92
2021/08/18 02:56:06;;;;;;;5.35;2.70;;;15.60;93.60;;;;;;2035138;28;20040;-93
2021/08/18 02:57:07;;;;;;;3.97;2.55;;;15.60;93.60;;;;;;2045421;29;20127;-93
2021/08/18 02:58:07;;;;;;;4.55;2.60;;;15.60;93.60;;;;;;2032943;29;20040;-93
2021/08/18 02:59:08;;;;;;;3.85;2.58;;;15.60;93.60;;;;;;2026427;29;20581;-93
2021/08/18 03:00:09;;;;;;;3.88;2.60;;;15.60;93.60;;;;;;2039597;29;20494;-93
2021/08/18 03:01:10;;;;;;;4.05;2.55;;;15.60;93.60;;;;;;2041776;29;20248;-92
2021/08/18 03:02:10;;;;;;;5.15;2.80;;;15.60;93.60;;;;;;2049618;28;20442;-94
2021/08/18 03:03:11;;;;;;;3.80;2.60;;;15.60;93.60;;;;;;2040704;29;20513;-93
2021/08/18 03:04:12;;;;;;;4.00;2.58;;;15.60;93.60;;;;;;2034312;29;20463;-93
2021/08/18 03:05:13;;;;;;;4.47;2.40;;;15.60;93.60;;;;;;2042045;28;20414;-93
2021/08/18 03:06:14;;;;;;;4.85;2.60;;;15.60;93.60;;;;;;2049203;28;20046;-93
2021/08/18 03:07:14;;;;;;;4.15;2.50;;;15.70;93.60;;;;;;2041410;29;20035;-92
2021/08/18 03:08:15;;;;;;;5.32;2.80;;;15.70;93.90;;;;;;2041540;29;20036;-93
2021/08/18 03:09:16;;;;;;;3.78;2.50;;;15.70;93.60;;;;;;2049323;29;20047;-93
2021/08/18 03:10:16;;;;;;;4.88;2.65;;;15.70;93.60;;;;;;2032642;29;20619;-93
2021/08/18 03:11:17;;;;;;;3.65;2.50;;;15.70;93.60;;;;;;2043914;28;20482;-92
2021/08/18 03:12:18;;;;;;;4.28;2.40;;;15.60;93.60;;;;;;2049354;29;20043;-93
2021/08/18 03:13:18;;;;;;;3.90;2.42;;;15.70;93.60;;;;;;2041148;29;20039;-93
2021/08/18 03:14:20;;;;;;;4.22;2.58;;;15.70;93.60;;;;;;2041477;29;20040;-93
2021/08/18 03:15:20;;;;;;;4.28;2.50;;;15.70;93.60;;;;;;2041832;28;20028;-92
2021/08/18 03:16:21;;;;;;;3.50;2.35;;;15.70;93.60;;;;;;2056136;28;20039;-93
2021/08/18 03:17:21;;;;;;;4.32;2.47;;;15.70;93.60;;;;;;2049245;28;20043;-93
2021/08/18 03:18:22;;;;;;;3.75;2.35;;;15.70;93.60;;;;;;2059024;28;20077;-93
2021/08/18 03:19:23;;;;;;;4.05;2.40;;;15.70;93.60;;;;;;2052271;28;20118;-94
2021/08/18 03:20:25;;;;;;;3.70;2.30;;;15.70;93.60;;;;;;2049199;28;20040;-93
2021/08/18 03:21:25;;;;;;;3.78;2.25;;;15.70;93.60;;;;;;2065399;28;20073;-93
2021/08/18 03:22:26;;;;;;;4.00;2.80;;;15.70;93.60;;;;;;2056194;28;20039;-92
2021/08/18 03:23:27;;;;;;;4.10;2.50;;;15.70;93.60;;;;;;2046888;29;20039;-93
2021/08/18 03:24:34;;;;;;;3.80;2.47;;;15.70;93.60;;;;;;2041507;29;20040;-93
2021/08/18 03:25:35;;;;;;;3.53;2.33;;;15.60;93.60;;;;;;2047934;28;20061;-93
2021/08/18 03:26:38;;;;;;;3.35;2.13;;;15.60;93.60;;;;;;2049478;28;20035;-93
2021/08/18 03:27:39;;;;;;;4.70;2.40;;;15.60;93.60;;;;;;2049389;28;20126;-93
2021/08/18 03:28:49;;;;;;;3.35;2.25;;;15.60;93.60;;;;;;2041740;28;20126;-93
2021/08/18 03:29:57;;;;;;;3.78;2.50;;;15.60;93.60;;;;;;2042887;28;20044;-92
2021/08/18 03:31:00;;;;;;;4.00;2.35;;;15.60;93.60;;;;;;2051646;28;20035;-92
2021/08/18 03:32:01;;;;;;;3.95;2.20;;;15.60;93.60;;;;;;2049471;29;20038;-92
2021/08/18 03:33:24;;;;;;;3.20;2.20;;;15.60;93.60;;;;;;2047472;28;20043;-93
2021/08/18 03:34:25;;;;;;;3.40;2.17;;;15.60;93.50;;;;;;2043976;28;20046;-93
2021/08/18 03:35:28;;;;;;;3.38;2.22;;;15.60;93.60;;;;;;2057208;28;20126;-92
2021/08/18 03:36:29;;;;;;;3.65;2.40;;;15.60;93.50;;;;;;2056948;28;20094;-92
2021/08/18 03:37:30;;;;;;;3.50;2.30;;;15.60;93.60;;;;;;2056759;28;20035;-92
2021/08/18 03:38:30;;;;;;;4.15;2.30;;;15.60;93.60;;;;;;2048953;28;20035;-92
2021/08/18 03:39:31;;;;;;;3.78;2.00;;;15.60;93.60;;;;;;2041659;29;20510;-93
2021/08/18 03:40:32;;;;;;;3.53;2.15;;;15.60;93.60;;;;;;2035088;29;20530;-92
2021/08/18 03:41:32;;;;;;;3.10;2.15;;;15.60;93.60;;;;;;2027548;29;20040;-93
2021/08/18 03:42:33;;;;;;;3.28;2.20;;;15.60;93.60;;;;;;2028366;29;20044;-92
2021/08/18 03:43:34;;;;;;;5.05;2.33;;;15.60;93.60;;;;;;2034906;29;20541;-93
2021/08/18 03:44:34;;;;;;;3.95;2.20;;;15.60;93.60;;;;;;2050922;28;20043;-93
2021/08/18 03:45:35;;;;;;;4.38;2.20;;;15.60;93.60;;;;;;2050862;29;20059;-93
2021/08/18 03:46:36;;;;;;;4.05;2.22;;;15.60;93.60;;;;;;2043012;29;20040;-93
2021/08/18 03:47:38;;;;;;;3.45;2.10;;;15.60;93.60;;;;;;2035128;29;20037;-93
2021/08/18 03:48:38;;;;;;;3.50;2.00;;;15.60;93.60;;;;;;2050638;28;20047;-92
2021/08/18 03:49:39;;;;;;;3.30;2.20;;;15.60;93.60;;;;;;2042590;29;20040;-92
2021/08/18 03:50:40;;;;;;;2.72;2.00;;;15.60;93.60;;;;;;2034957;29;20047;-92
2021/08/18 03:51:40;;;;;;;2.88;1.80;;;15.60;93.60;;;;;;2041236;29;20430;-93
2021/08/18 03:52:42;;;;;;;3.63;1.90;;;15.60;93.60;;;;;;2042325;29;20490;-93
2021/08/18 03:53:42;;;;;;;2.92;2.00;;;15.60;93.60;;;;;;2051063;28;20073;-92
2021/08/18 03:54:43;;;;;;;3.95;2.00;;;15.60;93.60;;;;;;2050519;28;20042;-92
2021/08/18 03:55:44;;;;;;;2.45;1.70;;;15.60;93.60;;;;;;2043657;29;20409;-92
2021/08/18 03:56:45;;;;;;;3.22;1.83;;;15.60;93.60;;;;;;2055908;28;20046;-93
2021/08/18 03:57:45;;;;;;;4.25;2.42;;;15.60;93.60;;;;;;2042891;29;20437;-93
2021/08/18 03:58:46;;;;;;;3.67;2.10;;;15.50;93.50;;;;;;2034710;29;20044;-92
2021/08/18 03:59:47;;;;;;;3.03;1.90;;;15.60;93.60;;;;;;2042873;29;20032;-93
2021/08/18 04:00:48;;;;;;;4.25;1.90;;;15.60;93.50;;;;;;2042779;28;20048;-92
2021/08/18 04:01:49;;;;;;;2.40;1.75;;;15.60;93.60;;;;;;2050753;29;20032;-92
2021/08/18 04:02:49;;;;;;;5.82;2.10;;;15.50;93.50;;;;;;2049924;28;20043;-92
2021/08/18 04:03:50;;;;;;;3.72;1.95;;;15.50;93.50;;;;;;2047957;28;20127;-93
2021/08/18 04:04:51;;;;;;;3.47;1.90;;;15.60;93.70;;;;;;2050538;29;20094;-92
2021/08/18 04:05:51;;;;;;;2.83;1.77;;;15.60;93.50;;;;;;2034791;29;20414;-92
2021/08/18 04:06:52;;;;;;;3.45;2.10;;;15.60;93.50;;;;;;2050692;28;20116;-93
2021/08/18 04:07:53;;;;;;;3.35;1.83;;;15.60;93.50;;;;;;2054817;28;20058;-92
2021/08/18 04:08:56;;;;;;;3.80;2.10;;;15.60;93.50;;;;;;2050618;28;20054;-92
2021/08/18 04:09:56;;;;;;;2.83;1.80;;;15.50;93.50;;;;;;2058714;28;20026;-92
2021/08/18 04:10:57;;;;;;;3.25;1.90;;;15.50;93.50;;;;;;2049463;29;20027;-93
2021/08/18 04:11:58;;;;;;;4.70;2.10;;;15.50;93.50;;;;;;2050717;29;20039;-93
2021/08/18 04:13:00;;;;;;;3.60;1.80;;;15.50;93.50;;;;;;2036394;29;20032;-93
2021/08/18 04:14:00;;;;;;;2.67;1.90;;;15.60;93.60;;;;;;2041181;28;20048;-93
2021/08/18 04:15:01;;;;;;;3.55;1.95;;;15.60;93.60;;;;;;2049264;29;20051;-93
2021/08/18 04:16:02;;;;;;;3.88;2.13;;;15.50;93.60;;;;;;2041286;29;20044;-93
2021/08/18 04:17:03;;;;;;;3.55;2.20;;;15.60;93.60;;;;;;2049860;28;20031;-93
2021/08/18 04:18:05;;;;;;;3.15;2.10;;;15.50;93.60;;;;;;2065665;28;20031;-92
2021/08/18 04:19:05;;;;;;;3.63;2.00;;;15.60;93.60;;;;;;2064865;28;20035;-93
2021/08/18 04:20:06;;;;;;;4.05;2.00;;;15.50;93.60;;;;;;2049386;29;20043;-93
2021/08/18 04:21:07;;;;;;;3.33;2.20;;;15.50;93.60;;;;;;2049372;28;20048;-92
2021/08/18 04:22:08;;;;;;;3.33;1.80;;;15.60;93.60;;;;;;2043704;29;20137;-92
2021/08/18 04:23:09;;;;;;;2.72;1.90;;;15.60;93.60;;;;;;2041873;29;20092;-93
2021/08/18 04:24:09;;;;;;;3.47;1.92;;;15.60;93.60;;;;;;2049348;28;20035;-94
2021/08/18 04:25:13;;;;;;;3.55;2.15;;;15.60;93.60;;;;;;2059953;28;20019;-92
2021/08/18 04:26:13;;;;;;;3.78;1.98;;;15.50;93.60;;;;;;2061136;28;20027;-91
2021/08/18 04:27:14;;;;;;;3.78;2.30;;;15.60;93.60;;;;;;2048587;29;20063;-92
2021/08/18 04:28:15;;;;;;;3.53;2.13;;;15.60;93.60;;;;;;2039576;29;20048;-94
2021/08/18 04:29:15;;;;;;;3.85;2.17;;;15.50;93.60;;;;;;2037362;29;20044;-93
2021/08/18 04:30:17;;;;;;;3.00;2.03;;;15.60;93.60;;;;;;2020052;29;20041;-93
2021/08/18 04:31:18;;;;;;;2.42;1.80;;;15.50;93.60;;;;;;2044600;29;20044;-93
2021/08/18 04:32:18;;;;;;;3.42;2.03;;;15.50;93.60;;;;;;2052519;28;20045;-93
2021/08/18 04:33:19;;;;;;;3.15;2.10;;;15.50;93.60;;;;;;2059608;28;20035;-93
2021/08/18 04:34:20;;;;;;;4.05;2.10;;;15.50;93.60;;;;;;2054327;28;20051;-93
2021/08/18 04:35:21;;;;;;;3.42;2.00;;;15.50;93.60;;;;;;2061084;28;20110;-93
2021/08/18 04:36:22;;;;;;;3.33;1.98;;;15.60;93.60;;;;;;2060268;28;20039;-92
2021/08/18 04:37:22;;;;;;;3.10;1.80;;;15.60;93.60;;;;;;2053598;28;20039;-92
2021/08/18 04:38:24;;;;;;;3.67;2.10;;;15.60;93.60;;;;;;2052464;28;20039;-89
2021/08/18 04:39:24;;;;;;;2.85;2.00;;;15.60;93.60;;;;;;2068625;28;20082;-93
2021/08/18 04:40:25;;;;;;;4.45;1.85;;;15.50;93.60;;;;;;2060369;28;20042;-92
2021/08/18 04:41:26;;;;;;;3.45;2.08;;;15.60;93.60;;;;;;2043708;29;20020;-94
2021/08/18 04:42:26;;;;;;;3.10;2.10;;;15.50;93.60;;;;;;2043734;29;20016;-93
2021/08/18 04:43:27;;;;;;;2.78;1.90;;;15.60;93.60;;;;;;2044720;29;20113;-93
2021/08/18 04:44:28;;;;;;;4.80;2.50;;;15.60;93.60;;;;;;2044249;29;20556;-93
2021/08/18 04:45:28;;;;;;;2.80;1.90;;;15.60;93.60;;;;;;2061508;28;20042;-95
2021/08/18 04:46:29;;;;;;;4.70;2.47;;;15.60;93.60;;;;;;2060721;28;20107;-89
2021/08/18 04:47:30;;;;;;;3.17;1.90;;;15.60;93.60;;;;;;2059954;28;20068;-91
2021/08/18 04:48:31;;;;;;;3.47;2.13;;;15.60;93.60;;;;;;2067605;28;20026;-92
2021/08/18 04:49:31;;;;;;;3.83;2.10;;;15.50;93.60;;;;;;2075087;28;20035;-91
2021/08/18 04:50:32;;;;;;;4.30;2.20;;;15.60;93.60;;;;;;2055078;28;20142;-91
2021/08/18 04:51:33;;;;;;;4.13;2.10;;;15.50;93.60;;;;;;2043694;29;20497;-94
2021/08/18 04:52:34;;;;;;;3.10;2.00;;;15.60;93.60;;;;;;2046399;28;20450;-93
2021/08/18 04:53:35;;;;;;;4.32;2.00;;;15.60;93.60;;;;;;2051727;29;20410;-92
2021/08/18 04:54:35;;;;;;;3.15;2.08;;;15.60;93.60;;;;;;2050655;29;20081;-94
2021/08/18 04:55:38;;;;;;;3.70;2.30;;;15.60;93.60;;;;;;2034084;29;20039;-92
2021/08/18 04:56:38;;;;;;;3.90;2.40;;;15.60;93.60;;;;;;2051266;28;20428;-92
2021/08/18 04:57:39;;;;;;;4.03;2.25;;;15.60;93.60;;;;;;2058279;28;20027;-93
2021/08/18 04:58:39;;;;;;;3.72;1.95;;;15.60;93.60;;;;;;2033676;29;20491;-94
2021/08/18 04:59:40;;;;;;;4.32;2.30;;;15.60;93.60;;;;;;2049575;28;20032;-88
2021/08/18 05:00:41;;;;;;;3.80;2.47;;;15.60;93.60;;;;;;2041412;29;20184;-93
2021/08/18 05:01:41;;;;;;;4.40;2.50;;;15.60;93.60;;;;;;2034611;29;20087;-94
2021/08/18 05:02:45;;;;;;;4.28;2.38;;;15.60;93.50;;;;;;2050326;28;20402;-94
2021/08/18 05:03:46;;;;;;;4.40;2.67;;;15.70;93.50;;;;;;2045226;28;20154;-94
2021/08/18 05:04:46;;;;;;;5.40;2.40;;;15.70;93.50;;;;;;2059874;28;20035;-94
2021/08/18 05:05:47;;;;;;;3.35;2.38;;;15.70;93.50;;;;;;2042715;29;20040;-95
2021/08/18 05:06:48;;;;;;;3.75;2.33;;;15.70;93.50;;;;;;2042570;28;20036;-94
2021/08/18 05:07:50;;;;;;;3.63;2.28;;;15.70;93.50;;;;;;2058228;28;20042;-95
2021/08/18 05:08:51;;;;;;;3.88;2.35;;;15.70;93.50;;;;;;2058381;28;20049;-94
2021/08/18 05:09:52;;;;;;;4.70;2.45;;;15.70;93.50;;;;;;2050104;29;20557;-94
2021/08/18 05:10:52;;;;;;;3.80;2.22;;;15.80;93.50;;;;;;2050013;29;20043;-95
2021/08/18 05:11:54;;;;;;;6.18;2.35;;;15.80;93.50;;;;;;2048583;28;20039;-95
2021/08/18 05:12:55;;;;;;;4.55;2.65;;;15.80;93.50;;;;;;2057422;28;20035;-95
2021/08/18 05:13:56;;;;;;;3.20;2.20;;;15.70;93.40;;;;;;2057740;28;20069;-94
2021/08/18 05:14:57;;;;;;;3.88;2.20;;;15.80;93.40;;;;;;2056389;28;20051;-94
2021/08/18 05:15:57;;;;;;;3.47;2.22;;;15.80;93.40;;;;;;2046930;29;20051;-95
2021/08/18 05:16:58;;;;;;;3.70;2.35;;;15.80;93.40;;;;;;2050370;28;20035;-94
2021/08/18 05:17:59;;;;;;;4.00;2.45;;;15.80;93.40;;;;;;2058214;28;20428;-95
2021/08/18 05:18:59;;;;;;;3.88;2.33;;;15.80;93.40;;;;;;2050452;29;20118;-94